createdAt,value
2019-02-14T00:00:45.782Z,4.48
2019-02-14T00:05:49.585Z,4.64
2019-02-14T00:10:52.011Z,4.61
2019-02-14T00:15:54.991Z,4.66
2019-02-14T00:20:57.913Z,4.74
2019-02-14T00:26:00.189Z,4.66
2019-02-14T00:31:04.771Z,4.72
2019-02-14T00:36:10.062Z,4.74
2019-02-14T00:41:18.136Z,4.62
2019-02-14T00:46:23.213Z,4.64
2019-02-14T00:51:25.411Z,4.77
2019-02-14T00:56:28.467Z,4.79
2019-02-14T01:01:30.760Z,4.71
2019-02-14T01:06:34.401Z,4.51
2019-02-14T01:11:37.791Z,4.74
2019-02-14T01:16:41.277Z,4.63
2019-02-14T01:21:44.789Z,4.38
2019-02-14T01:26:50.362Z,4.33
2019-02-14T01:31:57.691Z,4.45
2019-02-14T01:37:00.265Z,4.40
2019-02-14T01:42:05.849Z,4.30
2019-02-14T01:47:10.867Z,4.47
2019-02-14T01:52:13.271Z,4.37
2019-02-14T01:57:18.328Z,4.47
2019-02-14T02:02:23.072Z,4.21
2019-02-14T02:07:28.041Z,4.28
2019-02-14T02:12:30.713Z,4.15
2019-02-14T02:17:34.233Z,4.15
2019-02-14T02:22:36.827Z,4.21
2019-02-14T02:27:39.122Z,4.06
2019-02-14T02:32:41.529Z,4.10
2019-02-14T02:37:43.705Z,4.00
2019-02-14T02:42:46.318Z,4.02
2019-02-14T02:47:48.902Z,3.99
2019-02-14T02:52:52.733Z,4.13
2019-02-14T02:57:54.962Z,4.15
2019-02-14T03:02:57.712Z,4.06
2019-02-14T03:07:59.911Z,4.16
2019-02-14T03:13:05.243Z,4.08
2019-02-14T03:18:07.245Z,4.06
2019-02-14T03:23:09.814Z,4.12
2019-02-14T03:28:12.411Z,3.98
2019-02-14T03:33:14.849Z,3.98
2019-02-14T03:38:17.301Z,3.94
2019-02-14T03:43:21.740Z,3.89
2019-02-14T03:48:24.021Z,3.80
2019-02-14T03:53:26.746Z,3.76
2019-02-14T03:58:29.530Z,3.63
2019-02-14T04:03:34.882Z,3.66
2019-02-14T04:08:37.196Z,3.56
2019-02-14T04:13:39.599Z,3.90
2019-02-14T04:18:45.122Z,3.60
2019-02-14T04:23:47.723Z,3.68
2019-02-14T04:28:50.207Z,3.77
2019-02-14T04:33:57.205Z,3.55
2019-02-14T04:39:02.263Z,3.61
2019-02-14T04:44:04.861Z,3.66
2019-02-14T04:49:07.147Z,3.40
2019-02-14T04:54:09.998Z,3.34
2019-02-14T04:59:15.420Z,3.40
2019-02-14T05:04:18.942Z,3.40
2019-02-14T05:09:21.229Z,3.19
2019-02-14T05:14:26.148Z,3.16
2019-02-14T05:19:28.555Z,3.12
2019-02-14T05:24:31.163Z,3.05
2019-02-14T05:29:33.439Z,3.03
2019-02-14T05:34:36.153Z,2.92
2019-02-14T05:39:42.010Z,3.05
2019-02-14T05:44:44.660Z,2.88
2019-02-14T05:49:48.735Z,2.89
2019-02-14T05:54:51.417Z,2.83
2019-02-14T05:59:53.643Z,2.86
2019-02-14T06:04:55.950Z,2.62
2019-02-14T06:09:58.166Z,2.58
2019-02-14T06:15:02.513Z,2.69
2019-02-14T06:20:07.386Z,2.44
2019-02-14T06:25:09.655Z,2.46
2019-02-14T06:30:12.396Z,2.60
2019-02-14T06:35:16.082Z,2.55
2019-02-14T06:40:22.366Z,2.72
2019-02-14T06:45:24.812Z,2.39
2019-02-14T06:50:34.578Z,2.43
2019-02-14T06:55:34.282Z,2.48
2019-02-14T07:00:36.703Z,2.44
2019-02-14T07:05:38.724Z,2.40
2019-02-14T07:10:42.572Z,2.55
2019-02-14T07:15:47.917Z,2.58
2019-02-14T07:20:52.095Z,2.56
2019-02-14T07:25:57.323Z,2.74
2019-02-14T07:31:01.824Z,2.69
2019-02-14T07:36:04.748Z,2.77
2019-02-14T07:41:07.034Z,2.84
2019-02-14T07:46:11.763Z,2.75
2019-02-14T07:51:14.066Z,2.79
2019-02-14T07:56:16.675Z,2.74
2019-02-14T08:01:19.727Z,2.81
2019-02-14T08:06:22.178Z,2.89
2019-02-14T08:11:25.752Z,3.17
2019-02-14T08:16:30.075Z,3.24
2019-02-14T08:21:32.413Z,3.44
2019-02-14T08:26:36.239Z,3.50
2019-02-14T08:31:38.514Z,3.70
2019-02-14T08:36:43.835Z,3.79
2019-02-14T08:41:45.926Z,3.83
2019-02-14T08:46:48.452Z,4.19
2019-02-14T08:51:55.928Z,4.23
2019-02-14T08:56:58.214Z,4.47
2019-02-14T09:02:02.550Z,4.47
2019-02-14T09:07:04.983Z,4.66
2019-02-14T09:12:09.174Z,4.96
2019-02-14T09:17:11.683Z,5.19
2019-02-14T09:22:13.856Z,5.30
2019-02-14T09:27:16.231Z,5.45
2019-02-14T09:32:22.356Z,5.66
2019-02-14T09:37:25.176Z,5.93
2019-02-14T09:42:29.401Z,6.04
2019-02-14T09:47:35.262Z,6.24
2019-02-14T09:52:37.543Z,6.26
2019-02-14T09:57:39.846Z,6.38
2019-02-14T10:02:41.890Z,6.78
2019-02-14T10:07:44.121Z,7.13
2019-02-14T10:12:46.538Z,7.30
2019-02-14T10:17:50.528Z,7.60
2019-02-14T10:22:52.770Z,7.96
2019-02-14T10:27:59.341Z,8.30
2019-02-14T10:33:01.762Z,8.43
2019-02-14T10:38:09.860Z,8.75
2019-02-14T10:43:12.106Z,8.80
2019-02-14T10:48:14.298Z,8.85
2019-02-14T10:53:19.450Z,8.98
2019-02-14T10:58:22.798Z,9.09
2019-02-14T11:03:25.435Z,8.98
2019-02-14T11:08:31.646Z,9.23
2019-02-14T11:13:31.947Z,9.05
2019-02-14T11:18:34.261Z,9.20
2019-02-14T11:23:36.680Z,9.22
2019-02-14T11:28:38.774Z,9.14
2019-02-14T11:33:43.592Z,9.13
2019-02-14T11:38:45.608Z,9.25
2019-02-14T11:43:50.630Z,9.37
2019-02-14T11:48:55.838Z,9.33
2019-02-14T11:53:58.566Z,9.38
2019-02-14T11:59:01.181Z,9.57
2019-02-14T12:04:03.599Z,9.51
2019-02-14T12:09:06.775Z,9.40
2019-02-14T12:14:10.168Z,9.60
2019-02-14T12:19:17.630Z,9.69
2019-02-14T12:24:22.474Z,9.87
2019-02-14T12:29:24.567Z,9.90
2019-02-14T12:34:26.903Z,9.86
2019-02-14T12:39:29.139Z,9.96
2019-02-14T12:44:35.016Z,9.99
2019-02-14T12:49:37.403Z,10.04
2019-02-14T12:54:39.851Z,10.06
2019-02-14T12:59:42.151Z,10.18
2019-02-14T13:04:44.147Z,10.38
2019-02-14T13:09:46.476Z,10.35
2019-02-14T13:14:48.681Z,10.39
2019-02-14T13:19:50.984Z,10.57
2019-02-14T13:24:53.197Z,10.68
2019-02-14T13:29:55.498Z,10.70
2019-02-14T13:34:58.051Z,10.91
2019-02-14T13:40:00.412Z,10.93
2019-02-14T13:45:03.052Z,10.86
2019-02-14T13:50:05.993Z,10.91
2019-02-14T13:55:08.622Z,10.77
2019-02-14T14:00:14.565Z,10.70
2019-02-14T14:05:18.587Z,11.01
2019-02-14T14:10:22.795Z,10.87
2019-02-14T14:15:25.564Z,10.84
2019-02-14T14:20:29.078Z,10.78
2019-02-14T14:25:31.798Z,10.85
2019-02-14T14:30:36.540Z,10.81
2019-02-14T14:35:40.392Z,10.86
2019-02-14T14:40:42.674Z,10.98
2019-02-14T14:46:08.282Z,10.81
2019-02-14T14:51:12.120Z,10.92
2019-02-14T14:56:14.792Z,10.79
2019-02-14T15:01:17.314Z,10.86
2019-02-14T15:30:51.654Z,10.19
2019-02-14T15:35:57.143Z,11.01
2019-02-14T15:41:01.734Z,10.90
2019-02-14T15:46:09.865Z,10.74
2019-02-14T15:51:15.668Z,10.78
2019-02-14T15:56:18.277Z,10.71
2019-02-14T16:01:20.293Z,10.51
2019-02-14T16:06:22.764Z,10.57
2019-02-14T16:11:25.106Z,10.14
2019-02-14T18:35:59.351Z,6.88
2019-02-14T18:41:14.316Z,7.08
2019-02-14T18:46:29.386Z,7.20
2019-02-14T18:51:44.490Z,7.12
2019-02-14T18:57:00.122Z,7.25
2019-02-14T19:07:17.894Z,6.78
2019-02-14T19:22:52.188Z,6.49
2019-02-14T19:28:00.976Z,6.69
2019-02-14T19:33:13.788Z,6.76
2019-02-14T19:38:29.931Z,6.54
2019-02-14T19:43:39.280Z,6.56
2019-02-14T19:48:48.287Z,6.47
2019-02-14T19:53:57.073Z,6.29
2019-02-14T19:59:07.099Z,6.21
2019-02-14T20:04:20.013Z,6.12
2019-02-14T20:09:36.057Z,5.99
2019-02-14T20:14:44.856Z,5.96
2019-02-14T20:19:55.182Z,6.10
2019-02-14T20:25:04.324Z,6.22
2019-02-14T20:30:13.478Z,6.49
2019-02-14T20:35:23.566Z,6.20
2019-02-14T20:40:38.623Z,6.24
2019-02-14T20:45:47.439Z,6.35
2019-02-14T20:50:58.548Z,6.40
2019-02-14T20:56:09.387Z,6.32
2019-02-14T21:01:18.310Z,6.17
2019-02-14T21:06:27.294Z,6.25
2019-02-14T21:11:35.916Z,6.23
2019-02-14T21:16:44.947Z,6.48
2019-02-14T21:21:54.150Z,6.37
2019-02-14T21:27:03.142Z,6.50
2019-02-14T21:32:12.161Z,6.47
2019-02-14T21:37:27.280Z,6.17
2019-02-14T21:42:35.452Z,6.32
2019-02-14T21:47:43.597Z,6.41
2019-02-14T21:52:52.539Z,6.27
2019-02-14T21:58:04.477Z,6.25
2019-02-14T22:03:12.620Z,6.35
2019-02-14T22:08:24.785Z,6.49
2019-02-14T22:13:38.725Z,6.49
2019-02-14T22:18:53.777Z,6.34
2019-02-14T22:24:08.852Z,6.31
2019-02-14T22:29:18.714Z,6.46
2019-02-14T22:34:27.738Z,6.39
2019-02-14T22:39:44.135Z,6.54
2019-02-14T22:44:53.128Z,6.53
2019-02-14T22:50:02.388Z,6.44
2019-02-14T22:55:14.708Z,6.46
2019-02-14T23:00:52.135Z,6.47
2019-02-14T23:06:01.070Z,6.43
2019-02-14T23:11:10.276Z,6.33
2019-02-14T23:16:18.931Z,5.95
2019-02-14T23:21:34.051Z,6.16
2019-02-14T23:26:48.287Z,6.23
2019-02-14T23:31:57.138Z,6.18
2019-02-14T23:37:12.931Z,6.06
2019-02-14T23:42:28.398Z,5.97
2019-02-14T23:47:37.385Z,6.09
2019-02-14T23:52:46.552Z,5.81
2019-02-14T23:57:55.564Z,5.94
